Flight Track Log - Related Links

Times and Time Zones

All times are in EDT time to prevent confusion due to time zone crossing. See the N999TF flight status page for this flight to view local times or setup timezone preferences in your user account.

Time Position Orientation Groundspeed Altitude Reporting Facility
EDT Latitude Longitude Course Direction KTS MPH feet Rate Location/Type
Tue 12:19:38 PM 45.2286 -122.7739 129° Southeast 106 122 1,000  Level Seattle Center
Tue 12:20:09 PM 45.2181 -122.7750 184° South 101 116 1,200 1,055 Climbing Seattle Center
Tue 12:21:09 PM 45.2231 -122.8097 282° West 128 147 2,600 1,148 Climbing Seattle Center
Tue 12:22:04 PM 45.2533 -122.8300 335° Northwest 130 150 3,400 672 Climbing Seattle Center
Tue 12:23:00 PM 45.2471 -122.7701 317° Northwest  Level Estimated
Tue 12:23:05 PM 45.2936 -122.8439 346° North 138 159 3,900  Level Seattle Center
Tue 12:24:00 PM 45.2471 -122.7701 129° Southeast  Level Estimated
Tue 12:24:06 PM 45.3444 -122.8481 357° North 167 192 3,900  Level Seattle Center
Tue 12:25:07 PM 45.3950 -122.8514 357° North 177 204 3,900 -198 Level Seattle Center
Tue 12:26:07 PM 45.4467 -122.8456 North 174 200 3,500 -492 Descending Seattle Center
Tue 12:27:09 PM 45.4717 -122.8042 49° Northeast 167 192 2,900 -293 Descending Seattle Center
Tue 12:28:10 PM 45.4678 -122.7578 97° East 145 167 2,900  Level Seattle Center
Tue 12:29:11 PM 45.4411 -122.7428 158° South 116 133 2,900 50 Level Seattle Center
Tue 12:30:10 PM 45.4083 -122.7411 178° South 118 136 3,000 -150 Climbing Seattle Center
Tue 12:31:11 PM 45.3753 -122.7483 189° South 111 128 2,600 -532 Descending Seattle Center
Tue 12:32:14 PM 45.3456 -122.7531 186° South 109 125 1,900 -581 Descending Seattle Center
Tue 12:33:15 PM 45.3183 -122.7581 187° South 102 117 1,400 -492 Descending Seattle Center
Tue 12:34:16 PM 45.2922 -122.7631 188° South 99 114 900 -492 Descending Seattle Center
Tue 12:35:17 PM 45.2656 -122.7672 186° South 97 112 400 295 Descending Seattle Center
Tue 12:36:18 PM 45.2347 -122.7731 188° South 103 119 1,500 984 Climbing Seattle Center
Tue 12:37:19 PM 45.2014 -122.7781 186° South 115 132 2,400 934 Climbing Seattle Center
Tue 12:38:20 PM 45.1903 -122.7506 120° Southeast 157 181 3,400 738 Climbing Seattle Center
Tue 12:39:29 PM 45.2400 -122.7111 29° Northeast 166 191 4,000 246 Climbing Seattle Center
Tue 12:40:22 PM 45.2728 -122.6900 24° Northeast 172 198 3,900 -368 Descending Seattle Center
Tue 12:41:23 PM 45.3219 -122.6800 North 174 200 3,300 -492 Descending Seattle Center
Tue 12:42:24 PM 45.3658 -122.6819 358° North 163 188 2,900 -197 Descending Seattle Center
Tue 12:43:25 PM 45.4133 -122.6803 North 148 170 2,900  Level Seattle Center
Tue 12:44:26 PM 45.4522 -122.6806 360° North 142 163 2,900  Level Seattle Center
Tue 12:45:27 PM 45.4517 -122.7322 269° West 137 158 2,900  Level Seattle Center
Tue 12:46:28 PM 45.4175 -122.7383 187° South 122 140 2,900 -98 Level Seattle Center
Tue 12:47:30 PM 45.3850 -122.7425 185° South 119 137 2,700 -439 Descending Seattle Center
Tue 12:48:31 PM 45.3564 -122.7489 189° South 111 128 2,000 -590 Descending Seattle Center
Tue 12:49:32 PM 45.3300 -122.7583 194° South 101 116 1,500 -443 Descending Seattle Center
Tue 12:50:33 PM 45.3014 -122.7608 184° South 101 116 1,100 -541 Descending Seattle Center
Tue 12:51:34 PM 45.2728 -122.7658 187° South 102 117 400 98 Descending Seattle Center
Tue 12:52:35 PM 45.2425 -122.7567 168° South 105 121 1,300 738 Climbing Seattle Center
Tue 12:53:36 PM 45.2075 -122.7386 160° South 124 143 1,900 689 Climbing Seattle Center
Tue 12:54:37 PM 45.1786 -122.7058 141° Southeast 150 173 2,700 836 Climbing Seattle Center
Tue 12:55:38 PM 45.2217 -122.6736 28° Northeast 159 183 3,600 624 Climbing Seattle Center
Tue 12:56:42 PM 45.2703 -122.6681 North 170 196 4,000 48 Climbing Seattle Center
Tue 12:57:43 PM 45.3244 -122.6678 360° North 184 212 3,700 -492 Descending Seattle Center
Tue 12:58:44 PM 45.3758 -122.6653 North 183 211 3,000 -403 Descending Seattle Center
Tue 12:59:42 PM 45.4139 -122.6650 360° North 164 189 2,900 -100 Descending Seattle Center
Tue 01:00:44 PM 45.4439 -122.6806 340° North 149 171 2,800  Descending Seattle Center
Tue 01:01:45 PM 45.4353 -122.7211 253° West 138 159 2,900 -197 Climbing Seattle Center
Tue 01:02:46 PM 45.4039 -122.7428 206° Southwest 132 152 2,400 -344 Descending Seattle Center
Tue 01:03:47 PM 45.3681 -122.7506 189° South 129 148 2,200 -295 Descending Seattle Center
Tue 01:04:48 PM 45.3406 -122.7544 186° South 108 124 1,800 -344 Descending Seattle Center
Tue 01:05:49 PM 45.3086 -122.7619 189° South 103 119 1,500 -295 Descending Seattle Center

Login

Don't have an account? Register now (free) for customized features, flight alerts, and more!